sensor_id;sensor_type;location;lat;lon;timestamp;P1;durP1;ratioP1;P2;durP2;ratioP2
13228;SDS011;6680;53.220;10.402;2022-07-23T00:01:28;4.60;;;2.03;;
13228;SDS011;6680;53.220;10.402;2022-07-23T00:03:56;4.23;;;2.07;;
13228;SDS011;6680;53.220;10.402;2022-07-23T00:06:22;2.30;;;2.10;;
13228;SDS011;6680;53.220;10.402;2022-07-23T00:08:50;2.40;;;2.17;;
13228;SDS011;6680;53.220;10.402;2022-07-23T00:11:17;2.30;;;2.10;;
13228;SDS011;6680;53.220;10.402;2022-07-23T00:13:44;2.87;;;2.30;;
13228;SDS011;6680;53.220;10.402;2022-07-23T00:16:12;2.87;;;2.10;;
13228;SDS011;6680;53.220;10.402;2022-07-23T00:18:39;6.47;;;2.13;;
13228;SDS011;6680;53.220;10.402;2022-07-23T00:21:06;2.10;;;2.00;;
13228;SDS011;6680;53.220;10.402;2022-07-23T00:23:33;3.63;;;2.40;;
13228;SDS011;6680;53.220;10.402;2022-07-23T00:25:59;2.87;;;2.10;;
13228;SDS011;6680;53.220;10.402;2022-07-23T00:28:26;1.77;;;1.67;;
13228;SDS011;6680;53.220;10.402;2022-07-23T00:30:53;2.23;;;2.03;;
13228;SDS011;6680;53.220;10.402;2022-07-23T00:33:21;2.97;;;2.07;;
13228;SDS011;6680;53.220;10.402;2022-07-23T00:35:47;3.40;;;2.10;;
13228;SDS011;6680;53.220;10.402;2022-07-23T00:38:14;4.00;;;2.47;;
13228;SDS011;6680;53.220;10.402;2022-07-23T00:40:41;3.47;;;2.10;;
13228;SDS011;6680;53.220;10.402;2022-07-23T00:43:07;2.10;;;1.93;;
13228;SDS011;6680;53.220;10.402;2022-07-23T00:45:34;3.37;;;2.40;;
13228;SDS011;6680;53.220;10.402;2022-07-23T00:48:01;3.63;;;2.00;;
13228;SDS011;6680;53.220;10.402;2022-07-23T00:50:29;2.80;;;1.70;;
13228;SDS011;6680;53.220;10.402;2022-07-23T00:52:56;2.77;;;2.47;;
13228;SDS011;6680;53.220;10.402;2022-07-23T00:55:22;1.83;;;1.73;;
13228;SDS011;6680;53.220;10.402;2022-07-23T00:57:50;4.00;;;2.40;;
13228;SDS011;6680;53.220;10.402;2022-07-23T01:00:18;2.33;;;1.80;;
13228;SDS011;6680;53.220;10.402;2022-07-23T01:02:45;3.63;;;2.70;;
13228;SDS011;6680;53.220;10.402;2022-07-23T01:05:12;4.07;;;2.10;;
13228;SDS011;6680;53.220;10.402;2022-07-23T01:07:40;2.30;;;2.10;;
13228;SDS011;6680;53.220;10.402;2022-07-23T01:10:07;3.50;;;1.90;;
13228;SDS011;6680;53.220;10.402;2022-07-23T01:12:48;2.20;;;1.93;;
13228;SDS011;6680;53.220;10.402;2022-07-23T01:15:15;1.93;;;1.77;;
13228;SDS011;6680;53.220;10.402;2022-07-23T01:17:42;3.53;;;1.87;;
13228;SDS011;6680;53.220;10.402;2022-07-23T01:20:09;2.47;;;2.00;;
13228;SDS011;6680;53.220;10.402;2022-07-23T01:22:37;1.70;;;1.60;;
13228;SDS011;6680;53.220;10.402;2022-07-23T01:25:04;3.00;;;1.93;;
13228;SDS011;6680;53.220;10.402;2022-07-23T01:27:31;5.13;;;2.10;;
13228;SDS011;6680;53.220;10.402;2022-07-23T01:29:59;2.27;;;2.00;;
13228;SDS011;6680;53.220;10.402;2022-07-23T01:32:26;2.40;;;2.20;;
13228;SDS011;6680;53.220;10.402;2022-07-23T01:34:53;5.13;;;2.47;;
13228;SDS011;6680;53.220;10.402;2022-07-23T01:37:20;3.07;;;2.10;;
13228;SDS011;6680;53.220;10.402;2022-07-23T01:39:48;7.37;;;2.50;;
13228;SDS011;6680;53.220;10.402;2022-07-23T01:42:15;3.90;;;2.00;;
13228;SDS011;6680;53.220;10.402;2022-07-23T01:44:42;1.83;;;1.73;;
13228;SDS011;6680;53.220;10.402;2022-07-23T01:47:08;2.70;;;1.97;;
13228;SDS011;6680;53.220;10.402;2022-07-23T01:49:35;2.43;;;2.23;;
13228;SDS011;6680;53.220;10.402;2022-07-23T01:52:02;2.47;;;1.70;;
13228;SDS011;6680;53.220;10.402;2022-07-23T01:54:32;2.03;;;1.90;;
13228;SDS011;6680;53.220;10.402;2022-07-23T01:57:01;2.73;;;2.13;;
13228;SDS011;6680;53.220;10.402;2022-07-23T01:59:27;2.57;;;2.20;;
13228;SDS011;6680;53.220;10.402;2022-07-23T02:01:54;4.07;;;1.90;;
13228;SDS011;6680;53.220;10.402;2022-07-23T02:04:22;2.47;;;2.07;;
13228;SDS011;6680;53.220;10.402;2022-07-23T02:06:50;2.60;;;2.13;;
13228;SDS011;6680;53.220;10.402;2022-07-23T02:09:17;2.50;;;2.20;;
13228;SDS011;6680;53.220;10.402;2022-07-23T02:11:44;2.50;;;2.30;;
13228;SDS011;6680;53.220;10.402;2022-07-23T02:14:12;2.87;;;2.23;;
13228;SDS011;6680;53.220;10.402;2022-07-23T02:16:39;4.83;;;2.30;;
13228;SDS011;6680;53.220;10.402;2022-07-23T02:19:06;3.00;;;2.40;;
13228;SDS011;6680;53.220;10.402;2022-07-23T02:21:32;2.70;;;1.73;;
13228;SDS011;6680;53.220;10.402;2022-07-23T02:23:59;4.33;;;2.53;;
13228;SDS011;6680;53.220;10.402;2022-07-23T02:26:26;9.10;;;2.20;;
13228;SDS011;6680;53.220;10.402;2022-07-23T02:28:52;2.10;;;1.90;;
13228;SDS011;6680;53.220;10.402;2022-07-23T02:31:20;2.30;;;2.13;;
13228;SDS011;6680;53.220;10.402;2022-07-23T02:33:47;3.37;;;2.57;;
13228;SDS011;6680;53.220;10.402;2022-07-23T02:36:14;4.47;;;2.40;;
13228;SDS011;6680;53.220;10.402;2022-07-23T02:38:40;3.40;;;2.50;;
13228;SDS011;6680;53.220;10.402;2022-07-23T02:41:07;2.47;;;2.27;;
13228;SDS011;6680;53.220;10.402;2022-07-23T02:43:34;2.90;;;2.60;;
13228;SDS011;6680;53.220;10.402;2022-07-23T02:46:01;6.87;;;2.60;;
13228;SDS011;6680;53.220;10.402;2022-07-23T02:48:29;4.53;;;2.03;;
13228;SDS011;6680;53.220;10.402;2022-07-23T02:50:55;4.77;;;2.13;;
13228;SDS011;6680;53.220;10.402;2022-07-23T02:53:22;2.20;;;2.00;;
13228;SDS011;6680;53.220;10.402;2022-07-23T02:55:49;4.20;;;2.47;;
13228;SDS011;6680;53.220;10.402;2022-07-23T02:58:16;2.53;;;2.33;;
13228;SDS011;6680;53.220;10.402;2022-07-23T03:00:43;2.67;;;2.07;;
13228;SDS011;6680;53.220;10.402;2022-07-23T03:03:09;3.03;;;2.47;;
13228;SDS011;6680;53.220;10.402;2022-07-23T03:05:37;2.27;;;1.90;;
13228;SDS011;6680;53.220;10.402;2022-07-23T03:08:04;2.47;;;2.27;;
13228;SDS011;6680;53.220;10.402;2022-07-23T03:10:31;4.43;;;2.87;;
13228;SDS011;6680;53.220;10.402;2022-07-23T03:12:58;3.10;;;2.03;;
13228;SDS011;6680;53.220;10.402;2022-07-23T03:15:24;2.43;;;2.23;;
13228;SDS011;6680;53.220;10.402;2022-07-23T03:17:51;3.37;;;2.23;;
13228;SDS011;6680;53.220;10.402;2022-07-23T03:20:18;3.13;;;2.43;;
13228;SDS011;6680;53.220;10.402;2022-07-23T03:22:46;2.30;;;2.10;;
13228;SDS011;6680;53.220;10.402;2022-07-23T03:25:12;2.77;;;2.00;;
13228;SDS011;6680;53.220;10.402;2022-07-23T03:27:39;4.77;;;2.10;;
13228;SDS011;6680;53.220;10.402;2022-07-23T03:30:06;2.90;;;1.90;;
13228;SDS011;6680;53.220;10.402;2022-07-23T03:32:34;4.17;;;2.50;;
13228;SDS011;6680;53.220;10.402;2022-07-23T03:35:00;2.93;;;2.20;;
13228;SDS011;6680;53.220;10.402;2022-07-23T03:37:27;2.57;;;2.27;;
13228;SDS011;6680;53.220;10.402;2022-07-23T03:39:55;2.93;;;2.20;;
13228;SDS011;6680;53.220;10.402;2022-07-23T03:42:22;2.30;;;2.17;;
13228;SDS011;6680;53.220;10.402;2022-07-23T03:44:48;2.53;;;2.10;;
13228;SDS011;6680;53.220;10.402;2022-07-23T03:47:15;2.50;;;2.30;;
13228;SDS011;6680;53.220;10.402;2022-07-23T03:49:46;2.90;;;2.60;;
13228;SDS011;6680;53.220;10.402;2022-07-23T03:52:13;3.50;;;2.20;;
13228;SDS011;6680;53.220;10.402;2022-07-23T03:54:40;2.40;;;2.20;;
13228;SDS011;6680;53.220;10.402;2022-07-23T03:57:08;2.37;;;2.17;;
13228;SDS011;6680;53.220;10.402;2022-07-23T03:59:34;2.37;;;2.17;;
13228;SDS011;6680;53.220;10.402;2022-07-23T04:02:01;2.93;;;2.30;;
13228;SDS011;6680;53.220;10.402;2022-07-23T04:04:28;2.90;;;2.20;;
13228;SDS011;6680;53.220;10.402;2022-07-23T04:06:54;3.57;;;2.50;;
13228;SDS011;6680;53.220;10.402;2022-07-23T04:09:21;3.43;;;2.40;;
13228;SDS011;6680;53.220;10.402;2022-07-23T04:11:48;2.43;;;2.20;;
13228;SDS011;6680;53.220;10.402;2022-07-23T04:14:16;2.27;;;2.07;;
13228;SDS011;6680;53.220;10.402;2022-07-23T04:16:42;1.97;;;1.70;;
13228;SDS011;6680;53.220;10.402;2022-07-23T04:19:09;2.10;;;1.90;;
13228;SDS011;6680;53.220;10.402;2022-07-23T04:21:36;3.00;;;2.30;;
13228;SDS011;6680;53.220;10.402;2022-07-23T04:24:03;1.87;;;1.77;;
13228;SDS011;6680;53.220;10.402;2022-07-23T04:26:30;3.40;;;1.97;;
13228;SDS011;6680;53.220;10.402;2022-07-23T04:28:58;2.03;;;1.90;;
13228;SDS011;6680;53.220;10.402;2022-07-23T04:31:26;1.90;;;1.80;;
13228;SDS011;6680;53.220;10.402;2022-07-23T04:33:52;2.40;;;2.20;;
13228;SDS011;6680;53.220;10.402;2022-07-23T04:36:19;3.50;;;2.17;;
13228;SDS011;6680;53.220;10.402;2022-07-23T04:38:45;1.90;;;1.80;;
13228;SDS011;6680;53.220;10.402;2022-07-23T04:41:12;3.47;;;2.40;;
13228;SDS011;6680;53.220;10.402;2022-07-23T04:43:39;2.13;;;2.03;;
13228;SDS011;6680;53.220;10.402;2022-07-23T04:46:06;2.07;;;1.83;;
13228;SDS011;6680;53.220;10.402;2022-07-23T04:48:34;2.50;;;2.30;;
13228;SDS011;6680;53.220;10.402;2022-07-23T04:51:00;2.70;;;2.07;;
13228;SDS011;6680;53.220;10.402;2022-07-23T04:53:27;2.50;;;2.30;;
13228;SDS011;6680;53.220;10.402;2022-07-23T04:55:54;2.40;;;2.20;;
13228;SDS011;6680;53.220;10.402;2022-07-23T04:58:20;1.93;;;1.83;;
13228;SDS011;6680;53.220;10.402;2022-07-23T05:00:47;2.27;;;2.03;;
13228;SDS011;6680;53.220;10.402;2022-07-23T05:03:14;3.87;;;2.27;;
13228;SDS011;6680;53.220;10.402;2022-07-23T05:05:42;2.50;;;2.30;;
13228;SDS011;6680;53.220;10.402;2022-07-23T05:08:09;2.30;;;2.10;;
13228;SDS011;6680;53.220;10.402;2022-07-23T05:10:35;3.90;;;2.30;;
13228;SDS011;6680;53.220;10.402;2022-07-23T05:13:02;5.87;;;2.60;;
13228;SDS011;6680;53.220;10.402;2022-07-23T05:15:29;4.50;;;2.40;;
13228;SDS011;6680;53.220;10.402;2022-07-23T05:17:56;3.03;;;2.20;;
13228;SDS011;6680;53.220;10.402;2022-07-23T05:20:22;2.67;;;2.30;;
13228;SDS011;6680;53.220;10.402;2022-07-23T05:22:51;3.80;;;2.30;;
13228;SDS011;6680;53.220;10.402;2022-07-23T05:25:18;3.63;;;2.20;;
13228;SDS011;6680;53.220;10.402;2022-07-23T05:27:44;2.10;;;2.00;;
13228;SDS011;6680;53.220;10.402;2022-07-23T05:30:11;2.53;;;2.03;;
13228;SDS011;6680;53.220;10.402;2022-07-23T05:32:38;2.10;;;2.00;;
13228;SDS011;6680;53.220;10.402;2022-07-23T05:35:06;2.93;;;2.30;;
13228;SDS011;6680;53.220;10.402;2022-07-23T05:37:33;2.93;;;2.30;;
13228;SDS011;6680;53.220;10.402;2022-07-23T05:40:02;2.67;;;2.13;;
13228;SDS011;6680;53.220;10.402;2022-07-23T05:42:31;2.53;;;2.33;;
13228;SDS011;6680;53.220;10.402;2022-07-23T05:44:57;4.80;;;2.23;;
13228;SDS011;6680;53.220;10.402;2022-07-23T05:47:24;3.53;;;2.20;;
13228;SDS011;6680;53.220;10.402;2022-07-23T05:49:51;2.77;;;2.57;;
13228;SDS011;6680;53.220;10.402;2022-07-23T05:52:18;2.13;;;1.93;;
13228;SDS011;6680;53.220;10.402;2022-07-23T05:54:45;2.83;;;2.30;;
13228;SDS011;6680;53.220;10.402;2022-07-23T05:57:13;3.37;;;2.60;;
13228;SDS011;6680;53.220;10.402;2022-07-23T05:59:39;2.83;;;2.27;;
13228;SDS011;6680;53.220;10.402;2022-07-23T06:02:06;2.13;;;2.03;;
13228;SDS011;6680;53.220;10.402;2022-07-23T06:04:33;2.57;;;2.37;;
13228;SDS011;6680;53.220;10.402;2022-07-23T06:06:59;2.60;;;2.30;;
13228;SDS011;6680;53.220;10.402;2022-07-23T06:09:26;4.30;;;2.10;;
13228;SDS011;6680;53.220;10.402;2022-07-23T06:11:53;2.40;;;2.20;;
13228;SDS011;6680;53.220;10.402;2022-07-23T06:14:21;2.40;;;2.20;;
13228;SDS011;6680;53.220;10.402;2022-07-23T06:16:47;3.30;;;2.10;;
13228;SDS011;6680;53.220;10.402;2022-07-23T06:19:14;3.00;;;1.90;;
13228;SDS011;6680;53.220;10.402;2022-07-23T06:21:40;3.33;;;2.03;;
13228;SDS011;6680;53.220;10.402;2022-07-23T06:24:07;2.10;;;2.00;;
13228;SDS011;6680;53.220;10.402;2022-07-23T06:26:34;3.23;;;1.90;;
13228;SDS011;6680;53.220;10.402;2022-07-23T06:29:00;2.43;;;2.23;;
13228;SDS011;6680;53.220;10.402;2022-07-23T06:31:28;2.13;;;1.90;;
13228;SDS011;6680;53.220;10.402;2022-07-23T06:33:55;2.00;;;1.90;;
13228;SDS011;6680;53.220;10.402;2022-07-23T06:36:22;3.07;;;2.03;;
13228;SDS011;6680;53.220;10.402;2022-07-23T06:38:49;1.97;;;1.83;;
13228;SDS011;6680;53.220;10.402;2022-07-23T06:41:15;3.07;;;1.60;;
13228;SDS011;6680;53.220;10.402;2022-07-23T06:43:42;3.33;;;2.03;;
13228;SDS011;6680;53.220;10.402;2022-07-23T06:46:09;3.73;;;2.00;;
13228;SDS011;6680;53.220;10.402;2022-07-23T06:48:37;5.97;;;2.30;;
13228;SDS011;6680;53.220;10.402;2022-07-23T06:51:04;2.40;;;2.23;;
13228;SDS011;6680;53.220;10.402;2022-07-23T06:53:30;1.60;;;1.50;;
13228;SDS011;6680;53.220;10.402;2022-07-23T06:55:57;1.83;;;1.73;;
13228;SDS011;6680;53.220;10.402;2022-07-23T06:58:24;1.97;;;1.77;;
13228;SDS011;6680;53.220;10.402;2022-07-23T07:00:51;2.60;;;1.90;;
13228;SDS011;6680;53.220;10.402;2022-07-23T07:03:17;2.00;;;1.90;;
13228;SDS011;6680;53.220;10.402;2022-07-23T07:05:46;2.70;;;1.70;;
13228;SDS011;6680;53.220;10.402;2022-07-23T07:08:12;3.50;;;1.80;;
13228;SDS011;6680;53.220;10.402;2022-07-23T07:10:39;1.73;;;1.20;;
13228;SDS011;6680;53.220;10.402;2022-07-23T07:13:06;2.23;;;1.70;;
13228;SDS011;6680;53.220;10.402;2022-07-23T07:15:32;1.67;;;1.47;;
13228;SDS011;6680;53.220;10.402;2022-07-23T07:17:59;1.40;;;1.30;;
13228;SDS011;6680;53.220;10.402;2022-07-23T07:20:26;2.67;;;1.57;;
13228;SDS011;6680;53.220;10.402;2022-07-23T07:22:54;1.43;;;1.33;;
13228;SDS011;6680;53.220;10.402;2022-07-23T07:25:21;2.20;;;1.80;;
13228;SDS011;6680;53.220;10.402;2022-07-23T07:27:47;2.20;;;1.73;;
13228;SDS011;6680;53.220;10.402;2022-07-23T07:30:14;1.60;;;1.50;;
13228;SDS011;6680;53.220;10.402;2022-07-23T07:32:41;1.63;;;1.53;;
13228;SDS011;6680;53.220;10.402;2022-07-23T07:35:08;3.67;;;1.90;;
13228;SDS011;6680;53.220;10.402;2022-07-23T07:37:35;1.80;;;1.30;;
13228;SDS011;6680;53.220;10.402;2022-07-23T07:40:03;2.07;;;1.40;;
13228;SDS011;6680;53.220;10.402;2022-07-23T07:42:30;1.40;;;1.30;;
13228;SDS011;6680;53.220;10.402;2022-07-23T07:44:57;1.63;;;1.53;;
13228;SDS011;6680;53.220;10.402;2022-07-23T07:47:24;1.90;;;1.80;;
13228;SDS011;6680;53.220;10.402;2022-07-23T07:49:51;1.20;;;1.20;;
13228;SDS011;6680;53.220;10.402;2022-07-23T07:52:17;1.17;;;1.17;;
13228;SDS011;6680;53.220;10.402;2022-07-23T07:54:44;1.30;;;1.20;;
13228;SDS011;6680;53.220;10.402;2022-07-23T07:57:12;2.40;;;1.70;;
13228;SDS011;6680;53.220;10.402;2022-07-23T07:59:39;1.80;;;1.70;;
13228;SDS011;6680;53.220;10.402;2022-07-23T08:02:05;3.50;;;1.87;;
13228;SDS011;6680;53.220;10.402;2022-07-23T08:04:32;1.70;;;1.60;;
13228;SDS011;6680;53.220;10.402;2022-07-23T08:06:59;1.33;;;1.30;;
13228;SDS011;6680;53.220;10.402;2022-07-23T08:09:26;2.43;;;1.50;;
13228;SDS011;6680;53.220;10.402;2022-07-23T08:11:52;1.73;;;1.30;;
13228;SDS011;6680;53.220;10.402;2022-07-23T08:14:20;1.90;;;1.37;;
13228;SDS011;6680;53.220;10.402;2022-07-23T08:16:47;4.97;;;1.57;;
13228;SDS011;6680;53.220;10.402;2022-07-23T08:19:14;0.93;;;0.87;;
13228;SDS011;6680;53.220;10.402;2022-07-23T08:21:40;1.63;;;1.53;;
13228;SDS011;6680;53.220;10.402;2022-07-23T08:24:07;1.87;;;1.60;;
13228;SDS011;6680;53.220;10.402;2022-07-23T08:26:34;1.60;;;1.33;;
13228;SDS011;6680;53.220;10.402;2022-07-23T08:29:00;2.07;;;1.77;;
13228;SDS011;6680;53.220;10.402;2022-07-23T08:31:28;1.60;;;1.50;;
13228;SDS011;6680;53.220;10.402;2022-07-23T08:33:57;1.30;;;1.27;;
13228;SDS011;6680;53.220;10.402;2022-07-23T08:36:24;1.67;;;1.50;;
13228;SDS011;6680;53.220;10.402;2022-07-23T08:38:52;1.17;;;1.13;;
13228;SDS011;6680;53.220;10.402;2022-07-23T08:41:19;2.07;;;1.40;;
13228;SDS011;6680;53.220;10.402;2022-07-23T08:43:46;3.53;;;1.67;;
13228;SDS011;6680;53.220;10.402;2022-07-23T08:46:13;1.40;;;1.30;;
13228;SDS011;6680;53.220;10.402;2022-07-23T08:48:41;1.60;;;1.50;;
13228;SDS011;6680;53.220;10.402;2022-07-23T08:51:08;2.10;;;1.50;;
13228;SDS011;6680;53.220;10.402;2022-07-23T08:53:35;1.60;;;1.50;;
13228;SDS011;6680;53.220;10.402;2022-07-23T08:56:04;1.73;;;1.33;;
13228;SDS011;6680;53.220;10.402;2022-07-23T08:58:31;1.43;;;1.33;;
13228;SDS011;6680;53.220;10.402;2022-07-23T09:00:58;1.60;;;1.50;;
13228;SDS011;6680;53.220;10.402;2022-07-23T09:03:25;1.63;;;1.33;;
13228;SDS011;6680;53.220;10.402;2022-07-23T09:05:55;1.63;;;1.40;;
13228;SDS011;6680;53.220;10.402;2022-07-23T09:08:23;1.60;;;1.50;;
13228;SDS011;6680;53.220;10.402;2022-07-23T09:10:52;2.10;;;1.40;;
13228;SDS011;6680;53.220;10.402;2022-07-23T09:13:27;2.63;;;1.90;;
13228;SDS011;6680;53.220;10.402;2022-07-23T09:15:56;1.47;;;1.23;;
13228;SDS011;6680;53.220;10.402;2022-07-23T09:18:30;1.57;;;1.47;;
13228;SDS011;6680;53.220;10.402;2022-07-23T09:21:06;2.97;;;1.53;;
13228;SDS011;6680;53.220;10.402;2022-07-23T09:23:38;3.67;;;1.80;;
13228;SDS011;6680;53.220;10.402;2022-07-23T09:26:16;2.33;;;1.80;;
13228;SDS011;6680;53.220;10.402;2022-07-23T09:28:55;2.07;;;1.97;;
13228;SDS011;6680;53.220;10.402;2022-07-23T09:31:24;1.80;;;1.70;;
13228;SDS011;6680;53.220;10.402;2022-07-23T09:33:51;2.20;;;1.90;;
13228;SDS011;6680;53.220;10.402;2022-07-23T09:36:33;2.70;;;1.80;;
13228;SDS011;6680;53.220;10.402;2022-07-23T09:38:59;2.20;;;1.67;;
13228;SDS011;6680;53.220;10.402;2022-07-23T09:41:27;1.70;;;1.60;;
13228;SDS011;6680;53.220;10.402;2022-07-23T09:44:06;1.70;;;1.60;;
13228;SDS011;6680;53.220;10.402;2022-07-23T09:46:34;1.80;;;1.70;;
13228;SDS011;6680;53.220;10.402;2022-07-23T09:49:10;1.83;;;1.73;;
13228;SDS011;6680;53.220;10.402;2022-07-23T09:51:53;4.33;;;1.80;;
13228;SDS011;6680;53.220;10.402;2022-07-23T09:54:23;3.10;;;1.43;;
13228;SDS011;6680;53.220;10.402;2022-07-23T09:56:55;3.00;;;1.27;;
13228;SDS011;6680;53.220;10.402;2022-07-23T09:59:23;1.50;;;1.40;;
13228;SDS011;6680;53.220;10.402;2022-07-23T10:01:52;3.23;;;1.80;;
13228;SDS011;6680;53.220;10.402;2022-07-23T10:04:20;1.50;;;1.40;;
13228;SDS011;6680;53.220;10.402;2022-07-23T10:06:49;1.43;;;1.33;;
13228;SDS011;6680;53.220;10.402;2022-07-23T10:09:22;1.40;;;1.30;;
13228;SDS011;6680;53.220;10.402;2022-07-23T10:11:51;1.83;;;1.73;;
13228;SDS011;6680;53.220;10.402;2022-07-23T10:14:20;1.73;;;1.50;;
13228;SDS011;6680;53.220;10.402;2022-07-23T10:16:46;1.23;;;1.23;;
13228;SDS011;6680;53.220;10.402;2022-07-23T10:19:14;1.80;;;1.60;;
13228;SDS011;6680;53.220;10.402;2022-07-23T10:21:42;1.67;;;1.57;;
13228;SDS011;6680;53.220;10.402;2022-07-23T10:24:16;1.47;;;1.37;;
13228;SDS011;6680;53.220;10.402;2022-07-23T10:26:51;1.30;;;1.20;;
13228;SDS011;6680;53.220;10.402;2022-07-23T10:29:35;1.30;;;1.20;;
13228;SDS011;6680;53.220;10.402;2022-07-23T10:32:08;1.50;;;1.40;;
13228;SDS011;6680;53.220;10.402;2022-07-23T10:34:48;2.33;;;1.83;;
13228;SDS011;6680;53.220;10.402;2022-07-23T10:37:22;1.53;;;1.20;;
13228;SDS011;6680;53.220;10.402;2022-07-23T10:42:51;1.40;;;1.30;;
13228;SDS011;6680;53.220;10.402;2022-07-23T10:45:27;1.40;;;1.40;;
13228;SDS011;6680;53.220;10.402;2022-07-23T10:47:56;1.60;;;1.50;;
13228;SDS011;6680;53.220;10.402;2022-07-23T10:50:39;1.67;;;1.57;;
13228;SDS011;6680;53.220;10.402;2022-07-23T10:53:13;2.60;;;1.40;;
13228;SDS011;6680;53.220;10.402;2022-07-23T10:55:46;1.80;;;1.60;;
13228;SDS011;6680;53.220;10.402;2022-07-23T10:58:17;1.30;;;1.30;;
13228;SDS011;6680;53.220;10.402;2022-07-23T11:00:45;1.37;;;1.30;;
13228;SDS011;6680;53.220;10.402;2022-07-23T11:05:54;1.00;;;1.00;;
13228;SDS011;6680;53.220;10.402;2022-07-23T11:08:21;1.07;;;1.07;;
13228;SDS011;6680;53.220;10.402;2022-07-23T11:10:50;1.00;;;1.00;;
13228;SDS011;6680;53.220;10.402;2022-07-23T11:13:26;1.27;;;1.03;;
13228;SDS011;6680;53.220;10.402;2022-07-23T11:16:07;1.57;;;1.03;;
13228;SDS011;6680;53.220;10.402;2022-07-23T11:18:56;1.50;;;1.40;;
13228;SDS011;6680;53.220;10.402;2022-07-23T11:21:44;1.40;;;1.30;;
13228;SDS011;6680;53.220;10.402;2022-07-23T11:24:13;1.10;;;1.10;;
13228;SDS011;6680;53.220;10.402;2022-07-23T11:29:40;2.93;;;1.37;;
13228;SDS011;6680;53.220;10.402;2022-07-23T11:32:14;1.97;;;1.87;;
13228;SDS011;6680;53.220;10.402;2022-07-23T11:34:53;1.20;;;1.20;;
13228;SDS011;6680;53.220;10.402;2022-07-23T11:37:27;1.13;;;1.13;;
13228;SDS011;6680;53.220;10.402;2022-07-23T11:40:03;1.23;;;1.23;;
13228;SDS011;6680;53.220;10.402;2022-07-23T11:42:37;1.60;;;1.50;;
13228;SDS011;6680;53.220;10.402;2022-07-23T11:45:05;1.43;;;1.33;;
13228;SDS011;6680;53.220;10.402;2022-07-23T11:47:33;1.30;;;1.30;;
13228;SDS011;6680;53.220;10.402;2022-07-23T11:50:02;1.17;;;1.17;;
13228;SDS011;6680;53.220;10.402;2022-07-23T11:52:31;1.20;;;1.20;;
13228;SDS011;6680;53.220;10.402;2022-07-23T11:54:59;1.17;;;1.17;;
13228;SDS011;6680;53.220;10.402;2022-07-23T11:57:28;1.53;;;1.43;;
13228;SDS011;6680;53.220;10.402;2022-07-23T11:59:58;1.37;;;1.27;;
13228;SDS011;6680;53.220;10.402;2022-07-23T12:02:29;1.30;;;1.30;;
13228;SDS011;6680;53.220;10.402;2022-07-23T12:04:56;1.53;;;1.47;;
13228;SDS011;6680;53.220;10.402;2022-07-23T12:07:24;1.10;;;1.10;;
13228;SDS011;6680;53.220;10.402;2022-07-23T12:09:52;2.93;;;1.50;;
13228;SDS011;6680;53.220;10.402;2022-07-23T12:12:19;1.83;;;1.40;;
13228;SDS011;6680;53.220;10.402;2022-07-23T12:14:47;1.70;;;1.50;;
13228;SDS011;6680;53.220;10.402;2022-07-23T12:17:16;1.37;;;1.37;;
13228;SDS011;6680;53.220;10.402;2022-07-23T12:19:43;1.10;;;1.10;;
13228;SDS011;6680;53.220;10.402;2022-07-23T12:22:10;1.60;;;1.50;;
13228;SDS011;6680;53.220;10.402;2022-07-23T12:24:58;1.10;;;1.10;;
13228;SDS011;6680;53.220;10.402;2022-07-23T12:27:26;0.97;;;0.97;;
13228;SDS011;6680;53.220;10.402;2022-07-23T12:29:53;1.30;;;1.30;;
13228;SDS011;6680;53.220;10.402;2022-07-23T12:32:22;1.23;;;1.10;;
13228;SDS011;6680;53.220;10.402;2022-07-23T12:34:51;1.30;;;1.20;;
13228;SDS011;6680;53.220;10.402;2022-07-23T12:37:30;1.30;;;1.20;;
13228;SDS011;6680;53.220;10.402;2022-07-23T12:39:58;1.30;;;1.27;;
13228;SDS011;6680;53.220;10.402;2022-07-23T12:42:43;1.30;;;1.30;;
13228;SDS011;6680;53.220;10.402;2022-07-23T12:45:11;0.73;;;0.73;;
13228;SDS011;6680;53.220;10.402;2022-07-23T12:47:52;1.63;;;1.53;;
13228;SDS011;6680;53.220;10.402;2022-07-23T12:50:30;1.60;;;1.50;;
13228;SDS011;6680;53.220;10.402;2022-07-23T12:53:09;1.80;;;1.33;;
13228;SDS011;6680;53.220;10.402;2022-07-23T12:55:38;1.10;;;1.10;;
13228;SDS011;6680;53.220;10.402;2022-07-23T12:58:07;1.27;;;1.20;;
13228;SDS011;6680;53.220;10.402;2022-07-23T13:00:58;1.20;;;1.20;;
13228;SDS011;6680;53.220;10.402;2022-07-23T13:03:32;1.10;;;1.10;;
13228;SDS011;6680;53.220;10.402;2022-07-23T13:06:04;1.80;;;1.57;;
13228;SDS011;6680;53.220;10.402;2022-07-23T13:08:32;1.30;;;1.30;;
13228;SDS011;6680;53.220;10.402;2022-07-23T13:11:00;1.40;;;1.40;;
13228;SDS011;6680;53.220;10.402;2022-07-23T13:13:28;1.30;;;1.30;;
13228;SDS011;6680;53.220;10.402;2022-07-23T13:15:56;1.60;;;1.07;;
13228;SDS011;6680;53.220;10.402;2022-07-23T13:18:24;1.67;;;1.60;;
13228;SDS011;6680;53.220;10.402;2022-07-23T13:20:53;1.13;;;1.13;;
13228;SDS011;6680;53.220;10.402;2022-07-23T13:23:20;1.30;;;1.30;;
13228;SDS011;6680;53.220;10.402;2022-07-23T13:25:47;3.17;;;1.13;;
13228;SDS011;6680;53.220;10.402;2022-07-23T13:28:15;1.17;;;1.17;;
13228;SDS011;6680;53.220;10.402;2022-07-23T13:30:42;1.37;;;1.27;;
13228;SDS011;6680;53.220;10.402;2022-07-23T13:33:11;1.10;;;1.10;;
13228;SDS011;6680;53.220;10.402;2022-07-23T13:35:38;1.00;;;1.00;;
13228;SDS011;6680;53.220;10.402;2022-07-23T13:38:06;1.23;;;1.13;;
13228;SDS011;6680;53.220;10.402;2022-07-23T13:40:36;1.23;;;1.13;;
13228;SDS011;6680;53.220;10.402;2022-07-23T13:43:04;3.70;;;1.33;;
13228;SDS011;6680;53.220;10.402;2022-07-23T13:45:32;2.00;;;1.30;;
13228;SDS011;6680;53.220;10.402;2022-07-23T13:47:58;1.20;;;1.20;;
13228;SDS011;6680;53.220;10.402;2022-07-23T13:50:26;1.27;;;1.27;;
13228;SDS011;6680;53.220;10.402;2022-07-23T13:52:52;1.00;;;1.00;;
13228;SDS011;6680;53.220;10.402;2022-07-23T13:55:20;2.20;;;1.10;;
13228;SDS011;6680;53.220;10.402;2022-07-23T13:57:47;1.30;;;1.20;;
13228;SDS011;6680;53.220;10.402;2022-07-23T14:00:14;1.10;;;1.10;;
13228;SDS011;6680;53.220;10.402;2022-07-23T14:02:41;0.80;;;0.80;;
13228;SDS011;6680;53.220;10.402;2022-07-23T14:05:09;1.80;;;1.20;;
13228;SDS011;6680;53.220;10.402;2022-07-23T14:07:37;1.00;;;1.00;;
13228;SDS011;6680;53.220;10.402;2022-07-23T14:10:05;1.30;;;1.27;;
13228;SDS011;6680;53.220;10.402;2022-07-23T14:12:34;1.13;;;1.13;;
13228;SDS011;6680;53.220;10.402;2022-07-23T14:15:02;1.00;;;1.00;;
13228;SDS011;6680;53.220;10.402;2022-07-23T14:17:30;1.17;;;1.17;;
13228;SDS011;6680;53.220;10.402;2022-07-23T14:19:57;1.03;;;1.00;;
13228;SDS011;6680;53.220;10.402;2022-07-23T14:22:25;0.97;;;0.97;;
13228;SDS011;6680;53.220;10.402;2022-07-23T14:24:51;1.13;;;1.13;;
13228;SDS011;6680;53.220;10.402;2022-07-23T14:27:18;1.23;;;1.03;;
13228;SDS011;6680;53.220;10.402;2022-07-23T14:29:46;1.30;;;1.30;;
13228;SDS011;6680;53.220;10.402;2022-07-23T14:32:13;1.30;;;1.20;;
13228;SDS011;6680;53.220;10.402;2022-07-23T14:34:40;1.07;;;1.07;;
13228;SDS011;6680;53.220;10.402;2022-07-23T14:37:06;1.47;;;1.37;;
13228;SDS011;6680;53.220;10.402;2022-07-23T14:39:33;1.57;;;1.47;;
13228;SDS011;6680;53.220;10.402;2022-07-23T14:42:00;1.30;;;1.20;;
13228;SDS011;6680;53.220;10.402;2022-07-23T14:44:27;1.50;;;1.47;;
13228;SDS011;6680;53.220;10.402;2022-07-23T14:46:55;2.17;;;1.20;;
13228;SDS011;6680;53.220;10.402;2022-07-23T14:49:21;1.20;;;1.20;;
13228;SDS011;6680;53.220;10.402;2022-07-23T14:51:48;1.30;;;1.20;;
13228;SDS011;6680;53.220;10.402;2022-07-23T14:54:15;1.17;;;1.00;;
13228;SDS011;6680;53.220;10.402;2022-07-23T14:56:42;0.90;;;0.90;;
13228;SDS011;6680;53.220;10.402;2022-07-23T14:59:09;1.40;;;1.13;;
13228;SDS011;6680;53.220;10.402;2022-07-23T15:01:36;1.43;;;1.33;;
13228;SDS011;6680;53.220;10.402;2022-07-23T15:04:04;1.47;;;1.37;;